sensor_id;sensor_type;location;lat;lon;timestamp;temperature;humidity
86002;DHT22;76581;51.988;5.854;2024-03-25T00:00:12;6.40;89.00
86002;DHT22;76581;51.988;5.854;2024-03-25T00:01:13;6.40;89.00
86002;DHT22;76581;51.988;5.854;2024-03-25T00:02:14;6.50;89.10
86002;DHT22;76581;51.988;5.854;2024-03-25T00:03:15;6.50;89.10
86002;DHT22;76581;51.988;5.854;2024-03-25T00:04:15;6.50;89.80
86002;DHT22;76581;51.988;5.854;2024-03-25T00:05:16;6.50;89.00
86002;DHT22;76581;51.988;5.854;2024-03-25T00:06:22;6.50;88.90
86002;DHT22;76581;51.988;5.854;2024-03-25T00:07:23;6.50;88.90
86002;DHT22;76581;51.988;5.854;2024-03-25T00:08:23;6.50;89.00
86002;DHT22;76581;51.988;5.854;2024-03-25T00:09:24;6.50;88.90
86002;DHT22;76581;51.988;5.854;2024-03-25T00:10:25;6.50;89.10
86002;DHT22;76581;51.988;5.854;2024-03-25T00:11:25;6.50;88.90
86002;DHT22;76581;51.988;5.854;2024-03-25T00:12:26;6.50;88.90
86002;DHT22;76581;51.988;5.854;2024-03-25T00:13:27;6.50;88.90
86002;DHT22;76581;51.988;5.854;2024-03-25T00:14:27;6.50;88.90
86002;DHT22;76581;51.988;5.854;2024-03-25T00:15:28;6.40;88.90
86002;DHT22;76581;51.988;5.854;2024-03-25T00:16:28;6.50;88.90
86002;DHT22;76581;51.988;5.854;2024-03-25T00:17:29;6.50;88.90
86002;DHT22;76581;51.988;5.854;2024-03-25T00:18:29;6.40;88.90
86002;DHT22;76581;51.988;5.854;2024-03-25T00:19:30;6.50;89.00
86002;DHT22;76581;51.988;5.854;2024-03-25T00:20:31;6.40;88.90
86002;DHT22;76581;51.988;5.854;2024-03-25T00:21:32;6.50;89.10
86002;DHT22;76581;51.988;5.854;2024-03-25T00:22:32;6.50;89.10
86002;DHT22;76581;51.988;5.854;2024-03-25T00:23:33;6.40;88.90
86002;DHT22;76581;51.988;5.854;2024-03-25T00:24:33;6.40;88.90
86002;DHT22;76581;51.988;5.854;2024-03-25T00:25:34;6.40;89.00
86002;DHT22;76581;51.988;5.854;2024-03-25T00:26:34;6.40;89.00
86002;DHT22;76581;51.988;5.854;2024-03-25T00:27:35;6.40;89.00
86002;DHT22;76581;51.988;5.854;2024-03-25T00:28:36;6.40;88.90
86002;DHT22;76581;51.988;5.854;2024-03-25T00:29:37;6.40;88.90
86002;DHT22;76581;51.988;5.854;2024-03-25T00:30:37;6.40;89.00
86002;DHT22;76581;51.988;5.854;2024-03-25T00:31:38;6.40;88.90
86002;DHT22;76581;51.988;5.854;2024-03-25T00:32:39;6.40;89.60
86002;DHT22;76581;51.988;5.854;2024-03-25T00:33:39;6.40;88.50
86002;DHT22;76581;51.988;5.854;2024-03-25T00:34:40;6.40;88.50
86002;DHT22;76581;51.988;5.854;2024-03-25T00:35:40;6.30;88.60
86002;DHT22;76581;51.988;5.854;2024-03-25T00:36:41;6.30;88.60
86002;DHT22;76581;51.988;5.854;2024-03-25T00:37:41;6.30;88.80
86002;DHT22;76581;51.988;5.854;2024-03-25T00:38:42;6.30;88.90
86002;DHT22;76581;51.988;5.854;2024-03-25T00:39:43;6.30;89.00
86002;DHT22;76581;51.988;5.854;2024-03-25T00:40:44;6.30;89.10
86002;DHT22;76581;51.988;5.854;2024-03-25T00:41:44;6.30;89.10
86002;DHT22;76581;51.988;5.854;2024-03-25T00:42:45;6.30;89.10
86002;DHT22;76581;51.988;5.854;2024-03-25T00:43:46;6.30;89.20
86002;DHT22;76581;51.988;5.854;2024-03-25T00:44:47;6.30;89.30
86002;DHT22;76581;51.988;5.854;2024-03-25T00:45:47;6.30;90.00
86002;DHT22;76581;51.988;5.854;2024-03-25T00:46:48;6.30;89.40
86002;DHT22;76581;51.988;5.854;2024-03-25T00:47:48;6.30;89.40
86002;DHT22;76581;51.988;5.854;2024-03-25T00:48:49;6.30;89.40
86002;DHT22;76581;51.988;5.854;2024-03-25T00:49:49;6.30;89.30
86002;DHT22;76581;51.988;5.854;2024-03-25T00:50:50;6.30;89.20
86002;DHT22;76581;51.988;5.854;2024-03-25T00:51:50;6.20;89.10
86002;DHT22;76581;51.988;5.854;2024-03-25T00:52:51;6.20;89.10
86002;DHT22;76581;51.988;5.854;2024-03-25T00:53:52;6.20;89.20
86002;DHT22;76581;51.988;5.854;2024-03-25T00:54:53;6.20;89.20
86002;DHT22;76581;51.988;5.854;2024-03-25T00:55:53;6.20;89.10
86002;DHT22;76581;51.988;5.854;2024-03-25T00:56:53;6.20;89.10
86002;DHT22;76581;51.988;5.854;2024-03-25T00:57:54;6.20;89.20
86002;DHT22;76581;51.988;5.854;2024-03-25T00:58:55;6.20;89.30
86002;DHT22;76581;51.988;5.854;2024-03-25T00:59:57;6.20;89.30
86002;DHT22;76581;51.988;5.854;2024-03-25T01:00:58;6.20;89.40
86002;DHT22;76581;51.988;5.854;2024-03-25T01:01:58;6.20;89.40
86002;DHT22;76581;51.988;5.854;2024-03-25T01:02:59;6.20;89.20
86002;DHT22;76581;51.988;5.854;2024-03-25T01:03:59;6.20;89.20
86002;DHT22;76581;51.988;5.854;2024-03-25T01:05:00;6.20;89.30
86002;DHT22;76581;51.988;5.854;2024-03-25T01:06:00;6.20;89.20
86002;DHT22;76581;51.988;5.854;2024-03-25T01:07:01;6.20;89.20
86002;DHT22;76581;51.988;5.854;2024-03-25T01:08:01;6.20;89.30
86002;DHT22;76581;51.988;5.854;2024-03-25T01:09:02;6.20;89.40
86002;DHT22;76581;51.988;5.854;2024-03-25T01:10:04;6.20;89.20
86002;DHT22;76581;51.988;5.854;2024-03-25T01:11:05;6.20;89.30
86002;DHT22;76581;51.988;5.854;2024-03-25T01:12:06;6.20;89.30
86002;DHT22;76581;51.988;5.854;2024-03-25T01:13:07;6.10;89.30
86002;DHT22;76581;51.988;5.854;2024-03-25T01:14:07;6.10;89.30
86002;DHT22;76581;51.988;5.854;2024-03-25T01:15:08;6.10;90.00
86002;DHT22;76581;51.988;5.854;2024-03-25T01:16:10;6.10;89.40
86002;DHT22;76581;51.988;5.854;2024-03-25T01:17:11;6.10;89.40
86002;DHT22;76581;51.988;5.854;2024-03-25T01:18:12;6.10;89.40
86002;DHT22;76581;51.988;5.854;2024-03-25T01:19:13;6.10;89.40
86002;DHT22;76581;51.988;5.854;2024-03-25T01:20:14;6.10;89.50
86002;DHT22;76581;51.988;5.854;2024-03-25T01:21:14;6.10;89.50
86002;DHT22;76581;51.988;5.854;2024-03-25T01:22:15;6.10;89.40
86002;DHT22;76581;51.988;5.854;2024-03-25T01:23:16;6.10;89.40
86002;DHT22;76581;51.988;5.854;2024-03-25T01:24:16;6.10;89.40
86002;DHT22;76581;51.988;5.854;2024-03-25T01:25:17;6.10;89.40
86002;DHT22;76581;51.988;5.854;2024-03-25T01:26:17;6.10;89.40
86002;DHT22;76581;51.988;5.854;2024-03-25T01:27:18;6.10;89.40
86002;DHT22;76581;51.988;5.854;2024-03-25T01:28:18;6.10;89.50
86002;DHT22;76581;51.988;5.854;2024-03-25T01:29:19;6.10;89.60
86002;DHT22;76581;51.988;5.854;2024-03-25T01:30:19;6.10;89.60
86002;DHT22;76581;51.988;5.854;2024-03-25T01:31:20;6.10;89.60
86002;DHT22;76581;51.988;5.854;2024-03-25T01:32:21;6.10;89.70
86002;DHT22;76581;51.988;5.854;2024-03-25T01:33:21;6.10;89.60
86002;DHT22;76581;51.988;5.854;2024-03-25T01:34:22;6.10;89.60
86002;DHT22;76581;51.988;5.854;2024-03-25T01:35:22;6.10;89.50
86002;DHT22;76581;51.988;5.854;2024-03-25T01:36:23;6.10;89.40
86002;DHT22;76581;51.988;5.854;2024-03-25T01:37:23;6.10;89.50
86002;DHT22;76581;51.988;5.854;2024-03-25T01:38:24;6.10;89.60
86002;DHT22;76581;51.988;5.854;2024-03-25T01:39:24;6.10;89.40
86002;DHT22;76581;51.988;5.854;2024-03-25T01:40:25;6.10;89.40
86002;DHT22;76581;51.988;5.854;2024-03-25T01:41:25;6.10;89.50
86002;DHT22;76581;51.988;5.854;2024-03-25T01:42:27;6.10;89.40
86002;DHT22;76581;51.988;5.854;2024-03-25T01:43:27;6.10;89.40
86002;DHT22;76581;51.988;5.854;2024-03-25T01:44:28;6.10;89.40
86002;DHT22;76581;51.988;5.854;2024-03-25T01:45:33;6.10;89.40
86002;DHT22;76581;51.988;5.854;2024-03-25T01:46:33;6.10;89.50
86002;DHT22;76581;51.988;5.854;2024-03-25T01:47:34;6.10;89.60
86002;DHT22;76581;51.988;5.854;2024-03-25T01:48:36;6.10;89.60
86002;DHT22;76581;51.988;5.854;2024-03-25T01:49:36;6.10;89.40
86002;DHT22;76581;51.988;5.854;2024-03-25T01:50:40;6.10;89.40
86002;DHT22;76581;51.988;5.854;2024-03-25T01:51:42;6.10;89.50
86002;DHT22;76581;51.988;5.854;2024-03-25T01:52:43;6.10;89.60
86002;DHT22;76581;51.988;5.854;2024-03-25T01:53:44;6.10;89.40
86002;DHT22;76581;51.988;5.854;2024-03-25T01:54:45;6.10;89.50
86002;DHT22;76581;51.988;5.854;2024-03-25T01:55:46;6.10;89.40
86002;DHT22;76581;51.988;5.854;2024-03-25T01:56:48;6.10;89.50
86002;DHT22;76581;51.988;5.854;2024-03-25T01:57:49;6.10;89.60
86002;DHT22;76581;51.988;5.854;2024-03-25T01:58:50;6.10;89.50
86002;DHT22;76581;51.988;5.854;2024-03-25T01:59:51;6.10;89.60
86002;DHT22;76581;51.988;5.854;2024-03-25T02:00:53;6.10;89.50
86002;DHT22;76581;51.988;5.854;2024-03-25T02:01:55;6.10;89.40
86002;DHT22;76581;51.988;5.854;2024-03-25T02:02:56;6.10;89.40
86002;DHT22;76581;51.988;5.854;2024-03-25T02:03:57;6.20;89.40
86002;DHT22;76581;51.988;5.854;2024-03-25T02:04:58;6.10;89.40
86002;DHT22;76581;51.988;5.854;2024-03-25T02:06:02;6.10;89.30
86002;DHT22;76581;51.988;5.854;2024-03-25T02:07:07;6.10;89.40
86002;DHT22;76581;51.988;5.854;2024-03-25T02:08:07;6.10;89.50
86002;DHT22;76581;51.988;5.854;2024-03-25T02:09:10;6.10;89.30
86002;DHT22;76581;51.988;5.854;2024-03-25T02:10:13;6.10;89.20
86002;DHT22;76581;51.988;5.854;2024-03-25T02:11:17;6.10;89.20
86002;DHT22;76581;51.988;5.854;2024-03-25T02:12:18;6.10;89.30
86002;DHT22;76581;51.988;5.854;2024-03-25T02:13:19;6.10;89.30
86002;DHT22;76581;51.988;5.854;2024-03-25T02:14:20;6.10;89.50
86002;DHT22;76581;51.988;5.854;2024-03-25T02:15:21;6.10;89.60
86002;DHT22;76581;51.988;5.854;2024-03-25T02:16:22;6.10;89.60
86002;DHT22;76581;51.988;5.854;2024-03-25T02:17:22;6.10;89.60
86002;DHT22;76581;51.988;5.854;2024-03-25T02:18:23;6.10;89.70
86002;DHT22;76581;51.988;5.854;2024-03-25T02:19:24;6.10;89.70
86002;DHT22;76581;51.988;5.854;2024-03-25T02:20:25;6.10;89.60
86002;DHT22;76581;51.988;5.854;2024-03-25T02:21:26;6.10;89.60
86002;DHT22;76581;51.988;5.854;2024-03-25T02:22:27;6.10;89.60
86002;DHT22;76581;51.988;5.854;2024-03-25T02:23:27;6.10;89.60
86002;DHT22;76581;51.988;5.854;2024-03-25T02:24:30;6.10;89.40
86002;DHT22;76581;51.988;5.854;2024-03-25T02:25:33;6.10;89.40
86002;DHT22;76581;51.988;5.854;2024-03-25T02:26:33;6.10;89.40
86002;DHT22;76581;51.988;5.854;2024-03-25T02:27:37;6.10;89.40
86002;DHT22;76581;51.988;5.854;2024-03-25T02:28:38;6.10;89.40
86002;DHT22;76581;51.988;5.854;2024-03-25T02:29:38;6.10;89.50
86002;DHT22;76581;51.988;5.854;2024-03-25T02:30:39;6.10;89.40
86002;DHT22;76581;51.988;5.854;2024-03-25T02:31:40;6.00;89.40
86002;DHT22;76581;51.988;5.854;2024-03-25T02:32:41;6.10;89.40
86002;DHT22;76581;51.988;5.854;2024-03-25T02:33:41;6.10;89.40
86002;DHT22;76581;51.988;5.854;2024-03-25T02:34:49;6.00;89.40
86002;DHT22;76581;51.988;5.854;2024-03-25T02:35:50;6.00;89.60
86002;DHT22;76581;51.988;5.854;2024-03-25T02:36:51;6.00;89.60
86002;DHT22;76581;51.988;5.854;2024-03-25T02:37:52;6.00;89.40
86002;DHT22;76581;51.988;5.854;2024-03-25T02:38:53;6.00;89.30
86002;DHT22;76581;51.988;5.854;2024-03-25T02:39:57;6.00;89.40
86002;DHT22;76581;51.988;5.854;2024-03-25T02:40:57;6.00;89.40
86002;DHT22;76581;51.988;5.854;2024-03-25T02:41:58;6.00;89.40
86002;DHT22;76581;51.988;5.854;2024-03-25T02:42:59;6.00;89.40
86002;DHT22;76581;51.988;5.854;2024-03-25T02:44:00;6.00;89.40
86002;DHT22;76581;51.988;5.854;2024-03-25T02:45:01;6.00;89.60
86002;DHT22;76581;51.988;5.854;2024-03-25T02:46:01;6.00;89.60
86002;DHT22;76581;51.988;5.854;2024-03-25T02:47:02;6.00;89.60
86002;DHT22;76581;51.988;5.854;2024-03-25T02:48:04;6.00;89.70
86002;DHT22;76581;51.988;5.854;2024-03-25T02:49:05;6.00;89.70
86002;DHT22;76581;51.988;5.854;2024-03-25T02:50:06;6.00;89.50
86002;DHT22;76581;51.988;5.854;2024-03-25T02:51:07;6.00;89.40
86002;DHT22;76581;51.988;5.854;2024-03-25T02:52:07;6.00;89.40
86002;DHT22;76581;51.988;5.854;2024-03-25T02:53:08;6.00;89.40
86002;DHT22;76581;51.988;5.854;2024-03-25T02:54:08;6.00;89.40
86002;DHT22;76581;51.988;5.854;2024-03-25T02:55:09;6.00;89.60
86002;DHT22;76581;51.988;5.854;2024-03-25T02:56:09;6.00;89.60
86002;DHT22;76581;51.988;5.854;2024-03-25T02:57:10;6.00;89.60
86002;DHT22;76581;51.988;5.854;2024-03-25T02:58:10;6.00;89.60
86002;DHT22;76581;51.988;5.854;2024-03-25T02:59:12;6.00;89.60
86002;DHT22;76581;51.988;5.854;2024-03-25T03:00:13;6.00;89.60
86002;DHT22;76581;51.988;5.854;2024-03-25T03:01:16;6.00;89.80
86002;DHT22;76581;51.988;5.854;2024-03-25T03:02:16;6.10;89.90
86002;DHT22;76581;51.988;5.854;2024-03-25T03:03:17;6.10;89.90
86002;DHT22;76581;51.988;5.854;2024-03-25T03:04:17;6.10;89.80
86002;DHT22;76581;51.988;5.854;2024-03-25T03:05:18;6.10;89.60
86002;DHT22;76581;51.988;5.854;2024-03-25T03:06:19;6.10;89.60
86002;DHT22;76581;51.988;5.854;2024-03-25T03:07:19;6.10;89.60
86002;DHT22;76581;51.988;5.854;2024-03-25T03:08:20;6.10;89.50
86002;DHT22;76581;51.988;5.854;2024-03-25T03:09:20;6.10;89.50
86002;DHT22;76581;51.988;5.854;2024-03-25T03:10:21;6.10;89.60
86002;DHT22;76581;51.988;5.854;2024-03-25T03:11:21;6.10;89.40
86002;DHT22;76581;51.988;5.854;2024-03-25T03:12:22;6.10;89.40
86002;DHT22;76581;51.988;5.854;2024-03-25T03:13:22;6.10;89.40
86002;DHT22;76581;51.988;5.854;2024-03-25T03:14:23;6.10;89.50
86002;DHT22;76581;51.988;5.854;2024-03-25T03:15:23;6.10;89.30
86002;DHT22;76581;51.988;5.854;2024-03-25T03:16:24;6.10;89.20
86002;DHT22;76581;51.988;5.854;2024-03-25T03:17:24;6.10;89.40
86002;DHT22;76581;51.988;5.854;2024-03-25T03:18:25;6.10;89.40
86002;DHT22;76581;51.988;5.854;2024-03-25T03:19:26;6.10;89.40
86002;DHT22;76581;51.988;5.854;2024-03-25T03:20:27;6.10;89.50
86002;DHT22;76581;51.988;5.854;2024-03-25T03:21:28;6.10;89.50
86002;DHT22;76581;51.988;5.854;2024-03-25T03:22:28;6.10;89.40
86002;DHT22;76581;51.988;5.854;2024-03-25T03:23:29;6.10;89.40
86002;DHT22;76581;51.988;5.854;2024-03-25T03:24:29;6.10;89.30
86002;DHT22;76581;51.988;5.854;2024-03-25T03:25:30;6.10;89.40
86002;DHT22;76581;51.988;5.854;2024-03-25T03:26:31;6.00;89.30
86002;DHT22;76581;51.988;5.854;2024-03-25T03:27:31;6.10;89.40
86002;DHT22;76581;51.988;5.854;2024-03-25T03:28:32;6.00;89.20
86002;DHT22;76581;51.988;5.854;2024-03-25T03:29:32;6.10;89.20
86002;DHT22;76581;51.988;5.854;2024-03-25T03:30:33;6.00;89.10
86002;DHT22;76581;51.988;5.854;2024-03-25T03:31:34;6.10;89.10
86002;DHT22;76581;51.988;5.854;2024-03-25T03:32:34;6.00;89.10
86002;DHT22;76581;51.988;5.854;2024-03-25T03:33:35;6.00;89.10
86002;DHT22;76581;51.988;5.854;2024-03-25T03:34:35;6.00;89.10
86002;DHT22;76581;51.988;5.854;2024-03-25T03:35:36;6.00;89.10
86002;DHT22;76581;51.988;5.854;2024-03-25T03:36:36;6.00;89.10
86002;DHT22;76581;51.988;5.854;2024-03-25T03:37:37;6.00;89.10
86002;DHT22;76581;51.988;5.854;2024-03-25T03:38:37;5.90;89.20
86002;DHT22;76581;51.988;5.854;2024-03-25T03:39:38;6.00;89.20
86002;DHT22;76581;51.988;5.854;2024-03-25T03:40:38;6.00;89.30
86002;DHT22;76581;51.988;5.854;2024-03-25T03:41:39;6.00;89.40
86002;DHT22;76581;51.988;5.854;2024-03-25T03:42:39;5.90;89.40
86002;DHT22;76581;51.988;5.854;2024-03-25T03:43:40;5.90;89.40
86002;DHT22;76581;51.988;5.854;2024-03-25T03:44:40;5.90;89.40
86002;DHT22;76581;51.988;5.854;2024-03-25T03:45:41;5.90;89.40
86002;DHT22;76581;51.988;5.854;2024-03-25T03:46:41;5.90;89.40
86002;DHT22;76581;51.988;5.854;2024-03-25T03:47:42;5.90;89.30
86002;DHT22;76581;51.988;5.854;2024-03-25T03:48:42;5.90;89.30
86002;DHT22;76581;51.988;5.854;2024-03-25T03:49:43;5.90;89.30
86002;DHT22;76581;51.988;5.854;2024-03-25T03:50:44;5.90;89.40
86002;DHT22;76581;51.988;5.854;2024-03-25T03:51:44;5.90;89.40
86002;DHT22;76581;51.988;5.854;2024-03-25T03:52:45;5.90;89.40
86002;DHT22;76581;51.988;5.854;2024-03-25T03:53:45;5.80;89.20
86002;DHT22;76581;51.988;5.854;2024-03-25T03:54:46;5.90;89.40
86002;DHT22;76581;51.988;5.854;2024-03-25T03:55:54;5.80;89.20
86002;DHT22;76581;51.988;5.854;2024-03-25T03:56:55;5.80;89.10
86002;DHT22;76581;51.988;5.854;2024-03-25T03:57:55;5.80;89.10
86002;DHT22;76581;51.988;5.854;2024-03-25T03:58:56;5.80;89.10
86002;DHT22;76581;51.988;5.854;2024-03-25T03:59:56;5.70;89.00
86002;DHT22;76581;51.988;5.854;2024-03-25T04:00:57;5.70;88.90
86002;DHT22;76581;51.988;5.854;2024-03-25T04:01:58;5.70;88.90
86002;DHT22;76581;51.988;5.854;2024-03-25T04:02:58;5.70;89.00
86002;DHT22;76581;51.988;5.854;2024-03-25T04:03:58;5.70;88.90
86002;DHT22;76581;51.988;5.854;2024-03-25T04:04:59;5.60;89.00
86002;DHT22;76581;51.988;5.854;2024-03-25T04:06:07;5.60;88.90
86002;DHT22;76581;51.988;5.854;2024-03-25T04:07:08;5.60;88.80
86002;DHT22;76581;51.988;5.854;2024-03-25T04:08:09;5.60;88.90
86002;DHT22;76581;51.988;5.854;2024-03-25T04:09:09;5.50;88.80
86002;DHT22;76581;51.988;5.854;2024-03-25T04:10:10;5.50;88.90
86002;DHT22;76581;51.988;5.854;2024-03-25T04:11:11;5.50;89.00
86002;DHT22;76581;51.988;5.854;2024-03-25T04:12:11;5.50;89.00
86002;DHT22;76581;51.988;5.854;2024-03-25T04:13:12;5.40;89.00
86002;DHT22;76581;51.988;5.854;2024-03-25T04:14:13;5.40;88.90
86002;DHT22;76581;51.988;5.854;2024-03-25T04:15:13;5.40;89.20
86002;DHT22;76581;51.988;5.854;2024-03-25T04:16:17;5.40;89.10
86002;DHT22;76581;51.988;5.854;2024-03-25T04:17:18;5.40;89.00
86002;DHT22;76581;51.988;5.854;2024-03-25T04:18:19;5.40;89.20
86002;DHT22;76581;51.988;5.854;2024-03-25T04:19:23;5.30;89.00
86002;DHT22;76581;51.988;5.854;2024-03-25T04:20:23;5.30;89.10
86002;DHT22;76581;51.988;5.854;2024-03-25T04:21:24;5.30;89.10
86002;DHT22;76581;51.988;5.854;2024-03-25T04:22:25;5.30;89.20
86002;DHT22;76581;51.988;5.854;2024-03-25T04:23:25;5.30;89.30
86002;DHT22;76581;51.988;5.854;2024-03-25T04:24:26;5.30;89.40
86002;DHT22;76581;51.988;5.854;2024-03-25T04:25:27;5.30;89.50
86002;DHT22;76581;51.988;5.854;2024-03-25T04:26:28;5.30;89.40
86002;DHT22;76581;51.988;5.854;2024-03-25T04:27:28;5.30;89.40
86002;DHT22;76581;51.988;5.854;2024-03-25T04:28:29;5.20;89.30
86002;DHT22;76581;51.988;5.854;2024-03-25T04:29:29;5.20;89.30
86002;DHT22;76581;51.988;5.854;2024-03-25T04:30:30;5.20;89.30
86002;DHT22;76581;51.988;5.854;2024-03-25T04:31:30;5.20;89.30
86002;DHT22;76581;51.988;5.854;2024-03-25T04:32:31;5.20;89.30
86002;DHT22;76581;51.988;5.854;2024-03-25T04:33:31;5.20;89.30
86002;DHT22;76581;51.988;5.854;2024-03-25T04:34:32;5.20;89.30
86002;DHT22;76581;51.988;5.854;2024-03-25T04:35:32;5.10;89.30
86002;DHT22;76581;51.988;5.854;2024-03-25T04:36:33;5.10;89.30
86002;DHT22;76581;51.988;5.854;2024-03-25T04:37:34;5.10;89.40
86002;DHT22;76581;51.988;5.854;2024-03-25T04:38:35;5.10;89.40
86002;DHT22;76581;51.988;5.854;2024-03-25T04:39:35;5.10;89.50
86002;DHT22;76581;51.988;5.854;2024-03-25T04:40:36;5.10;89.50
86002;DHT22;76581;51.988;5.854;2024-03-25T04:41:37;5.10;89.60
86002;DHT22;76581;51.988;5.854;2024-03-25T04:42:37;5.10;89.50
86002;DHT22;76581;51.988;5.854;2024-03-25T04:43:38;5.10;89.60
86002;DHT22;76581;51.988;5.854;2024-03-25T04:44:38;5.10;89.60
86002;DHT22;76581;51.988;5.854;2024-03-25T04:45:39;5.10;89.60
86002;DHT22;76581;51.988;5.854;2024-03-25T04:46:40;5.10;89.70
86002;DHT22;76581;51.988;5.854;2024-03-25T04:47:40;5.10;89.70
86002;DHT22;76581;51.988;5.854;2024-03-25T04:48:41;5.10;89.70
86002;DHT22;76581;51.988;5.854;2024-03-25T04:49:41;5.10;89.70
86002;DHT22;76581;51.988;5.854;2024-03-25T04:50:42;5.10;89.60
86002;DHT22;76581;51.988;5.854;2024-03-25T04:51:42;5.10;89.70
86002;DHT22;76581;51.988;5.854;2024-03-25T04:52:43;5.10;89.60
86002;DHT22;76581;51.988;5.854;2024-03-25T04:53:43;5.10;89.80
86002;DHT22;76581;51.988;5.854;2024-03-25T04:54:44;5.10;89.80
86002;DHT22;76581;51.988;5.854;2024-03-25T04:55:45;5.10;89.80
86002;DHT22;76581;51.988;5.854;2024-03-25T04:56:45;5.10;89.80
86002;DHT22;76581;51.988;5.854;2024-03-25T04:57:47;5.10;89.80
86002;DHT22;76581;51.988;5.854;2024-03-25T04:58:48;5.10;89.80
86002;DHT22;76581;51.988;5.854;2024-03-25T04:59:48;5.10;89.90
86002;DHT22;76581;51.988;5.854;2024-03-25T05:00:49;5.10;90.00
86002;DHT22;76581;51.988;5.854;2024-03-25T05:01:49;5.10;89.90
86002;DHT22;76581;51.988;5.854;2024-03-25T05:02:50;5.10;89.80
86002;DHT22;76581;51.988;5.854;2024-03-25T05:03:50;5.10;89.80
86002;DHT22;76581;51.988;5.854;2024-03-25T05:04:51;5.10;89.80
86002;DHT22;76581;51.988;5.854;2024-03-25T05:05:52;5.10;89.70
86002;DHT22;76581;51.988;5.854;2024-03-25T05:06:53;5.10;89.60
86002;DHT22;76581;51.988;5.854;2024-03-25T05:07:53;5.10;89.60
86002;DHT22;76581;51.988;5.854;2024-03-25T05:08:54;5.10;89.60
86002;DHT22;76581;51.988;5.854;2024-03-25T05:09:55;5.00;89.60
86002;DHT22;76581;51.988;5.854;2024-03-25T05:10:56;5.10;89.60
86002;DHT22;76581;51.988;5.854;2024-03-25T05:11:56;5.00;89.70
86002;DHT22;76581;51.988;5.854;2024-03-25T05:12:57;5.00;89.60
86002;DHT22;76581;51.988;5.854;2024-03-25T05:13:58;5.00;89.50
86002;DHT22;76581;51.988;5.854;2024-03-25T05:14:58;5.00;89.50
86002;DHT22;76581;51.988;5.854;2024-03-25T05:15:59;5.00;89.50
86002;DHT22;76581;51.988;5.854;2024-03-25T05:16:59;5.00;89.50
86002;DHT22;76581;51.988;5.854;2024-03-25T05:18:02;5.00;89.60
86002;DHT22;76581;51.988;5.854;2024-03-25T05:19:03;5.00;89.60
86002;DHT22;76581;51.988;5.854;2024-03-25T05:20:04;4.90;89.50
86002;DHT22;76581;51.988;5.854;2024-03-25T05:21:05;4.90;90.10
86002;DHT22;76581;51.988;5.854;2024-03-25T05:22:06;4.90;89.60
86002;DHT22;76581;51.988;5.854;2024-03-25T05:23:06;4.90;89.70
86002;DHT22;76581;51.988;5.854;2024-03-25T05:24:07;4.90;89.70
86002;DHT22;76581;51.988;5.854;2024-03-25T05:25:08;4.90;89.60
86002;DHT22;76581;51.988;5.854;2024-03-25T05:26:08;4.90;89.60
86002;DHT22;76581;51.988;5.854;2024-03-25T05:27:09;4.90;89.70
86002;DHT22;76581;51.988;5.854;2024-03-25T05:28:09;4.90;89.70
86002;DHT22;76581;51.988;5.854;2024-03-25T05:29:10;4.90;89.80
86002;DHT22;76581;51.988;5.854;2024-03-25T05:30:11;4.80;89.70
86002;DHT22;76581;51.988;5.854;2024-03-25T05:31:11;4.80;89.70
86002;DHT22;76581;51.988;5.854;2024-03-25T05:32:12;4.80;89.70
86002;DHT22;76581;51.988;5.854;2024-03-25T05:33:13;4.80;89.80
86002;DHT22;76581;51.988;5.854;2024-03-25T05:34:13;4.80;89.90
86002;DHT22;76581;51.988;5.854;2024-03-25T05:35:14;4.80;89.90
86002;DHT22;76581;51.988;5.854;2024-03-25T05:36:15;4.80;90.00
86002;DHT22;76581;51.988;5.854;2024-03-25T05:37:15;4.80;90.00
86002;DHT22;76581;51.988;5.854;2024-03-25T05:38:16;4.80;90.00
86002;DHT22;76581;51.988;5.854;2024-03-25T05:39:16;4.90;90.00
86002;DHT22;76581;51.988;5.854;2024-03-25T05:40:17;4.90;90.10
86002;DHT22;76581;51.988;5.854;2024-03-25T05:41:17;4.80;90.10
86002;DHT22;76581;51.988;5.854;2024-03-25T05:42:18;4.90;90.10
86002;DHT22;76581;51.988;5.854;2024-03-25T05:43:19;4.90;90.20
86002;DHT22;76581;51.988;5.854;2024-03-25T05:44:20;4.90;90.10
86002;DHT22;76581;51.988;5.854;2024-03-25T05:45:21;4.90;90.10
86002;DHT22;76581;51.988;5.854;2024-03-25T05:46:22;4.90;90.10
86002;DHT22;76581;51.988;5.854;2024-03-25T05:47:22;4.90;90.10
86002;DHT22;76581;51.988;5.854;2024-03-25T05:48:26;4.90;90.10
86002;DHT22;76581;51.988;5.854;2024-03-25T05:49:27;4.90;90.10
86002;DHT22;76581;51.988;5.854;2024-03-25T05:50:27;4.90;90.20
86002;DHT22;76581;51.988;5.854;2024-03-25T05:51:29;4.90;90.20
86002;DHT22;76581;51.988;5.854;2024-03-25T05:52:29;5.00;90.20
86002;DHT22;76581;51.988;5.854;2024-03-25T05:53:30;5.00;90.20
86002;DHT22;76581;51.988;5.854;2024-03-25T05:54:31;5.00;90.20
86002;DHT22;76581;51.988;5.854;2024-03-25T05:55:31;5.00;90.20
86002;DHT22;76581;51.988;5.854;2024-03-25T05:56:32;5.00;90.20
86002;DHT22;76581;51.988;5.854;2024-03-25T05:57:32;5.00;90.20
86002;DHT22;76581;51.988;5.854;2024-03-25T05:58:33;5.00;90.20
86002;DHT22;76581;51.988;5.854;2024-03-25T05:59:33;5.00;90.20
86002;DHT22;76581;51.988;5.854;2024-03-25T06:00:34;5.00;90.20
86002;DHT22;76581;51.988;5.854;2024-03-25T06:01:34;5.00;90.20
86002;DHT22;76581;51.988;5.854;2024-03-25T06:02:37;5.00;90.20
86002;DHT22;76581;51.988;5.854;2024-03-25T06:03:38;5.10;90.20
86002;DHT22;76581;51.988;5.854;2024-03-25T06:04:38;5.00;90.20
86002;DHT22;76581;51.988;5.854;2024-03-25T06:05:39;5.10;90.20
86002;DHT22;76581;51.988;5.854;2024-03-25T06:06:39;5.10;90.20
86002;DHT22;76581;51.988;5.854;2024-03-25T06:07:40;5.10;90.20
86002;DHT22;76581;51.988;5.854;2024-03-25T06:08:40;5.10;90.20
86002;DHT22;76581;51.988;5.854;2024-03-25T06:09:41;5.10;90.60
86002;DHT22;76581;51.988;5.854;2024-03-25T06:10:42;5.10;90.30
86002;DHT22;76581;51.988;5.854;2024-03-25T06:11:42;5.10;90.20
86002;DHT22;76581;51.988;5.854;2024-03-25T06:12:43;5.10;90.30
86002;DHT22;76581;51.988;5.854;2024-03-25T06:13:47;5.10;90.30
86002;DHT22;76581;51.988;5.854;2024-03-25T06:14:48;5.20;90.40
86002;DHT22;76581;51.988;5.854;2024-03-25T06:15:48;5.20;90.30
86002;DHT22;76581;51.988;5.854;2024-03-25T06:16:49;5.20;90.30
86002;DHT22;76581;51.988;5.854;2024-03-25T06:17:49;5.20;90.30
86002;DHT22;76581;51.988;5.854;2024-03-25T06:18:50;5.20;90.30
86002;DHT22;76581;51.988;5.854;2024-03-25T06:19:51;5.30;90.30
86002;DHT22;76581;51.988;5.854;2024-03-25T06:20:52;5.30;90.30
86002;DHT22;76581;51.988;5.854;2024-03-25T06:21:53;5.30;90.40
86002;DHT22;76581;51.988;5.854;2024-03-25T06:22:53;5.30;90.40
86002;DHT22;76581;51.988;5.854;2024-03-25T06:23:54;5.30;90.40
86002;DHT22;76581;51.988;5.854;2024-03-25T06:24:54;5.30;90.40
86002;DHT22;76581;51.988;5.854;2024-03-25T06:25:56;5.30;90.40
86002;DHT22;76581;51.988;5.854;2024-03-25T06:26:56;5.40;90.50
86002;DHT22;76581;51.988;5.854;2024-03-25T06:27:57;5.40;90.50
86002;DHT22;76581;51.988;5.854;2024-03-25T06:28:57;5.40;90.50
86002;DHT22;76581;51.988;5.854;2024-03-25T06:29:58;5.40;90.40